Saint Charles, Louisiana
Current Conditions -  °F | °C
As of 2:47 PM on Thursday 27 Nov 2014 (Local Time) from KHUM Reporting Station
Clear Clear  
Wind Chill: 64°   Ceiling: Unl
Heat Index: 64°   Visibility: 7mi
Dew Point: 32°   Wind: 10mph
Humidity: 30%   Direction: 10°N
Pressure: 30.37"   Gusts: NA
Location:  29.7195°N, 90.5441°W
Report Text: KHUM 272047Z 01009KT 7SM SKC 18/00 A3037 RMK RY12/30 CLOSED ATIS H VA RY36 MS
Loading
Personal Weather Stations






























Interactive Weather Map New forecast layout! Learn more

10-Day Weather Forecast

Advertisements
Track Severe Weather on mobile